createdAt,value
2023-03-31T00:00:05.762Z,1012.14
2023-03-31T00:01:05.776Z,1012.13
2023-03-31T00:02:05.776Z,1012.08
2023-03-31T00:03:05.810Z,1012.08
2023-03-31T00:04:05.922Z,1012.11
2023-03-31T00:05:05.994Z,1012.08
2023-03-31T00:06:05.920Z,1012.08
2023-03-31T00:07:05.770Z,1012.13
2023-03-31T00:08:05.763Z,1012.13
2023-03-31T00:09:05.757Z,1012.07
2023-03-31T00:10:17.380Z,1012.04
2023-03-31T00:11:05.762Z,1012.07
2023-03-31T00:12:05.779Z,1012.06
2023-03-31T00:13:05.763Z,1012.06
2023-03-31T00:14:05.765Z,1012.07
2023-03-31T00:15:05.763Z,1012.12
2023-03-31T00:16:06.034Z,1012.09
2023-03-31T00:17:05.787Z,1012.06
2023-03-31T00:18:05.792Z,1012.05
2023-03-31T00:19:05.759Z,1012.01
2023-03-31T00:20:05.768Z,1011.98
2023-03-31T00:21:05.771Z,1012.02
2023-03-31T00:22:05.782Z,1011.98
2023-03-31T00:23:05.757Z,1012
2023-03-31T00:24:05.762Z,1011.96
2023-03-31T00:25:05.758Z,1012.02
2023-03-31T00:26:05.942Z,1012.02
2023-03-31T00:27:05.779Z,1012.03
2023-03-31T00:28:05.763Z,1012.03
2023-03-31T00:29:05.766Z,1012.05
2023-03-31T00:30:05.773Z,1012.03
2023-03-31T00:31:05.752Z,1012.09
2023-03-31T00:32:05.801Z,1012.07
2023-03-31T00:33:05.784Z,1012.05
2023-03-31T00:34:05.760Z,1012.03
2023-03-31T00:35:05.769Z,1012.03
2023-03-31T00:36:06.050Z,1012.04
2023-03-31T00:37:05.768Z,1012.01
2023-03-31T00:38:05.759Z,1012.05
2023-03-31T00:39:05.758Z,1012.03
2023-03-31T00:40:05.761Z,1012.01
2023-03-31T00:41:05.772Z,1011.97
2023-03-31T00:42:05.773Z,1011.98
2023-03-31T00:43:05.757Z,1011.94
2023-03-31T00:44:05.779Z,1011.92
2023-03-31T00:45:05.753Z,1011.94
2023-03-31T00:46:05.942Z,1011.96
2023-03-31T00:47:05.769Z,1011.96
2023-03-31T00:48:05.814Z,1011.99
2023-03-31T00:49:05.761Z,1011.9
2023-03-31T00:50:05.769Z,1011.92
2023-03-31T00:51:05.781Z,1011.88
2023-03-31T00:52:05.765Z,1011.85
2023-03-31T00:53:05.754Z,1011.84
2023-03-31T00:54:05.756Z,1011.83
2023-03-31T00:55:05.745Z,1011.8
2023-03-31T00:56:05.918Z,1011.76
2023-03-31T00:57:05.820Z,1011.71
2023-03-31T00:58:05.760Z,1011.7
2023-03-31T00:59:05.750Z,1011.67
2023-03-31T01:00:05.758Z,1011.71
2023-03-31T01:01:05.774Z,1011.63
2023-03-31T01:02:05.794Z,1011.61
2023-03-31T01:03:05.823Z,1011.59
2023-03-31T01:04:05.764Z,1011.64
2023-03-31T01:05:05.764Z,1011.61
2023-03-31T01:06:06.026Z,1011.61
2023-03-31T01:07:05.768Z,1011.63
2023-03-31T01:08:05.761Z,1011.63
2023-03-31T01:09:05.757Z,1011.64
2023-03-31T01:10:05.769Z,1011.64
2023-03-31T01:11:05.764Z,1011.65
2023-03-31T01:12:05.779Z,1011.61
2023-03-31T01:13:05.767Z,1011.58
2023-03-31T01:14:05.760Z,1011.57
2023-03-31T01:15:05.765Z,1011.52
2023-03-31T01:16:06.001Z,1011.53
2023-03-31T01:17:05.911Z,1011.51
2023-03-31T01:18:05.865Z,1011.45
2023-03-31T01:19:05.753Z,1011.4
2023-03-31T01:20:05.784Z,1011.42
2023-03-31T01:21:05.771Z,1011.36
2023-03-31T01:22:05.776Z,1011.26
2023-03-31T01:23:05.759Z,1011.34
2023-03-31T01:24:05.768Z,1011.3
2023-03-31T01:25:05.756Z,1011.25
2023-03-31T01:26:05.891Z,1011.26
2023-03-31T01:27:05.780Z,1011.25
2023-03-31T01:28:05.758Z,1011.26
2023-03-31T01:29:05.763Z,1011.28
2023-03-31T01:30:05.771Z,1011.27
2023-03-31T01:31:05.884Z,1011.28
2023-03-31T01:32:05.798Z,1011.25
2023-03-31T01:33:05.790Z,1011.27
2023-03-31T01:34:05.755Z,1011.19
2023-03-31T01:35:05.759Z,1011.15
2023-03-31T01:36:05.913Z,1011.21
2023-03-31T01:37:05.776Z,1011.13
2023-03-31T01:38:05.779Z,1011.08
2023-03-31T01:39:05.757Z,1011.15
2023-03-31T01:40:05.751Z,1011.09
2023-03-31T01:41:05.752Z,1011.07
2023-03-31T01:42:05.772Z,1011.02
2023-03-31T01:43:05.755Z,1010.96
2023-03-31T01:44:05.759Z,1011.05
2023-03-31T01:45:05.759Z,1011.03
2023-03-31T01:46:05.917Z,1011.01
2023-03-31T01:47:05.771Z,1011.01
2023-03-31T01:48:05.790Z,1010.95
2023-03-31T01:49:05.762Z,1011.03
2023-03-31T01:50:05.780Z,1010.95
2023-03-31T01:51:05.790Z,1010.99
2023-03-31T01:52:05.820Z,1010.98
2023-03-31T01:53:05.763Z,1011.03
2023-03-31T01:54:05.768Z,1010.98
2023-03-31T01:55:05.770Z,1011.02
2023-03-31T01:56:05.969Z,1010.98
2023-03-31T01:57:06.003Z,1010.98
2023-03-31T01:58:05.773Z,1010.97
2023-03-31T01:59:05.755Z,1010.96
2023-03-31T02:00:05.764Z,1010.94
2023-03-31T02:01:05.749Z,1010.97
2023-03-31T02:02:05.793Z,1010.9
2023-03-31T02:03:05.818Z,1010.9
2023-03-31T02:04:05.768Z,1010.81
2023-03-31T02:05:05.767Z,1010.86
2023-03-31T02:06:05.944Z,1010.84
2023-03-31T02:07:05.784Z,1010.83
2023-03-31T02:08:05.766Z,1010.83
2023-03-31T02:09:05.756Z,1010.79
2023-03-31T02:10:05.762Z,1010.82
2023-03-31T02:11:05.769Z,1010.78
2023-03-31T02:12:05.776Z,1010.79
2023-03-31T02:13:05.767Z,1010.73
2023-03-31T02:14:05.756Z,1010.73
2023-03-31T02:15:05.779Z,1010.72
2023-03-31T02:16:06.048Z,1010.73
2023-03-31T02:17:05.776Z,1010.72
2023-03-31T02:18:05.786Z,1010.72
2023-03-31T02:19:05.783Z,1010.72
2023-03-31T02:20:05.854Z,1010.79
2023-03-31T02:21:05.796Z,1010.77
2023-03-31T02:22:05.781Z,1010.7
2023-03-31T02:23:05.759Z,1010.73
2023-03-31T02:24:05.760Z,1010.72
2023-03-31T02:25:05.764Z,1010.7
2023-03-31T02:26:06.074Z,1010.75
2023-03-31T02:27:05.776Z,1010.71
2023-03-31T02:28:05.759Z,1010.66
2023-03-31T02:29:05.777Z,1010.69
2023-03-31T02:30:05.757Z,1010.68
2023-03-31T02:31:05.782Z,1010.65
2023-03-31T02:32:05.776Z,1010.7
2023-03-31T02:33:05.816Z,1010.67
2023-03-31T02:34:05.757Z,1010.65
2023-03-31T02:35:05.766Z,1010.7
2023-03-31T02:36:06.015Z,1010.67
2023-03-31T02:37:05.776Z,1010.65
2023-03-31T02:38:05.762Z,1010.59
2023-03-31T02:39:05.764Z,1010.55
2023-03-31T02:40:05.758Z,1010.59
2023-03-31T02:41:05.762Z,1010.6
2023-03-31T02:42:05.778Z,1010.45
2023-03-31T02:43:05.776Z,1010.47
2023-03-31T02:44:05.777Z,1010.46
2023-03-31T02:45:05.756Z,1010.42
2023-03-31T02:46:05.999Z,1010.38
2023-03-31T02:47:05.777Z,1010.42
2023-03-31T02:48:05.755Z,1010.32
2023-03-31T02:49:05.762Z,1010.42
2023-03-31T02:50:05.789Z,1010.34
2023-03-31T02:51:05.779Z,1010.34
2023-03-31T02:52:05.781Z,1010.33
2023-03-31T02:53:05.769Z,1010.35
2023-03-31T02:54:05.766Z,1010.36
2023-03-31T02:55:05.774Z,1010.33
2023-03-31T02:56:05.935Z,1010.28
2023-03-31T02:57:05.814Z,1010.31
2023-03-31T02:58:05.776Z,1010.26
2023-03-31T02:59:05.763Z,1010.26
2023-03-31T03:00:05.769Z,1010.22
2023-03-31T03:01:05.806Z,1010.24
2023-03-31T03:02:05.801Z,1010.27
2023-03-31T03:03:05.920Z,1010.22
2023-03-31T03:04:05.758Z,1010.23
2023-03-31T03:05:05.770Z,1010.14
2023-03-31T03:06:05.965Z,1010.14
2023-03-31T03:07:05.782Z,1010.15
2023-03-31T03:08:05.774Z,1010.15
2023-03-31T03:09:05.763Z,1010.06
2023-03-31T03:10:05.772Z,1010.06
2023-03-31T03:11:05.781Z,1010.03
2023-03-31T03:12:05.805Z,1010.03
2023-03-31T03:13:05.767Z,1010.03
2023-03-31T03:14:05.768Z,1010
2023-03-31T03:15:05.764Z,1010.05
2023-03-31T03:16:05.976Z,1010.11
2023-03-31T03:17:05.781Z,1010.12
2023-03-31T03:18:05.861Z,1010.06
2023-03-31T03:19:05.773Z,1010.13
2023-03-31T03:20:05.766Z,1010.1
2023-03-31T03:21:05.777Z,1010.13
2023-03-31T03:22:07.396Z,1010.13
2023-03-31T03:23:05.758Z,1010.11
2023-03-31T03:24:05.771Z,1010.13
2023-03-31T03:25:05.764Z,1010.12
2023-03-31T03:26:06.041Z,1010.15
2023-03-31T03:27:05.787Z,1010.15
2023-03-31T03:28:05.767Z,1010.13
2023-03-31T03:29:05.770Z,1010.17
2023-03-31T03:30:05.768Z,1010.11
2023-03-31T03:31:05.809Z,1010.11
2023-03-31T03:32:05.782Z,1010.06
2023-03-31T03:33:05.784Z,1010.14
2023-03-31T03:34:05.775Z,1010.02
2023-03-31T03:35:05.782Z,1010.04
2023-03-31T03:36:06.079Z,1010.06
2023-03-31T03:37:05.789Z,1010.01
2023-03-31T03:38:05.772Z,1010.03
2023-03-31T03:39:05.769Z,1009.99
2023-03-31T03:40:05.765Z,1010
2023-03-31T03:41:05.789Z,1010
2023-03-31T03:42:05.793Z,1010.01
2023-03-31T03:43:05.757Z,1010.04
2023-03-31T03:44:05.764Z,1009.98
2023-03-31T03:45:05.759Z,1009.94
2023-03-31T03:46:06.093Z,1009.99
2023-03-31T03:47:05.790Z,1009.96
2023-03-31T03:48:05.848Z,1009.94
2023-03-31T03:49:05.779Z,1009.97
2023-03-31T03:50:05.784Z,1009.94
2023-03-31T03:51:05.781Z,1009.88
2023-03-31T03:52:05.775Z,1009.9
2023-03-31T03:53:05.780Z,1009.93
2023-03-31T03:54:05.776Z,1009.91
2023-03-31T03:55:05.765Z,1009.88
2023-03-31T03:56:06.090Z,1009.88
2023-03-31T03:57:05.848Z,1009.79
2023-03-31T03:58:05.811Z,1009.8
2023-03-31T03:59:05.778Z,1009.84
2023-03-31T04:00:05.780Z,1009.75
2023-03-31T04:01:05.775Z,1009.77
2023-03-31T04:02:05.848Z,1009.71
2023-03-31T04:03:05.883Z,1009.75
2023-03-31T04:04:05.841Z,1009.73
2023-03-31T04:05:05.835Z,1009.72
2023-03-31T04:06:06.085Z,1009.7
2023-03-31T04:07:05.920Z,1009.75
2023-03-31T04:08:05.770Z,1009.75
2023-03-31T04:09:05.866Z,1009.71
2023-03-31T04:10:05.789Z,1009.72
2023-03-31T04:11:05.865Z,1009.7
2023-03-31T04:12:05.881Z,1009.68
2023-03-31T04:13:05.831Z,1009.59
2023-03-31T04:14:05.751Z,1009.62
2023-03-31T04:15:05.759Z,1009.64
2023-03-31T04:16:06.062Z,1009.62
2023-03-31T04:17:05.896Z,1009.56
2023-03-31T04:18:05.782Z,1009.66
2023-03-31T04:19:05.766Z,1009.57
2023-03-31T04:20:05.774Z,1009.56
2023-03-31T04:21:05.768Z,1009.62
2023-03-31T04:22:05.772Z,1009.61
2023-03-31T04:23:05.768Z,1009.54
2023-03-31T04:24:05.770Z,1009.53
2023-03-31T04:25:05.755Z,1009.56
2023-03-31T04:26:05.865Z,1009.57
2023-03-31T04:27:05.774Z,1009.61
2023-03-31T04:28:05.770Z,1009.7
2023-03-31T04:29:05.786Z,1009.59
2023-03-31T04:30:05.741Z,1009.56
2023-03-31T04:31:05.753Z,1009.51
2023-03-31T04:32:05.839Z,1009.44
2023-03-31T04:33:05.802Z,1009.42
2023-03-31T04:34:05.761Z,1009.39
2023-03-31T04:35:05.766Z,1009.31
2023-03-31T04:36:05.985Z,1009.28
2023-03-31T04:37:05.776Z,1009.26
2023-03-31T04:38:05.760Z,1009.26
2023-03-31T04:39:05.773Z,1009.26
2023-03-31T04:40:05.736Z,1009.19
2023-03-31T04:41:05.756Z,1009.1
2023-03-31T04:42:05.799Z,1009.07
2023-03-31T04:43:05.756Z,1009.08
2023-03-31T04:44:05.769Z,1009.06
2023-03-31T04:45:05.749Z,1009.02
2023-03-31T04:46:06.061Z,1009.01
2023-03-31T04:47:05.781Z,1009.02
2023-03-31T04:48:05.816Z,1009.05
2023-03-31T04:49:05.965Z,1008.97
2023-03-31T04:50:05.741Z,1009.05
2023-03-31T04:51:05.779Z,1008.99
2023-03-31T04:52:05.772Z,1009.03
2023-03-31T04:53:05.752Z,1009.11
2023-03-31T04:54:05.757Z,1009.02
2023-03-31T04:55:05.747Z,1009.18
2023-03-31T04:56:05.946Z,1009.15
2023-03-31T04:57:05.884Z,1009.09
2023-03-31T04:58:05.765Z,1009.24
2023-03-31T04:59:05.758Z,1009.26
2023-03-31T05:00:05.756Z,1009.11
2023-03-31T05:01:05.815Z,1009.13
2023-03-31T05:02:05.798Z,1009.11
2023-03-31T05:03:05.794Z,1009
2023-03-31T05:04:05.800Z,1008.95
2023-03-31T05:05:05.768Z,1008.82
2023-03-31T05:06:05.994Z,1008.77
2023-03-31T05:07:05.779Z,1008.75
2023-03-31T05:08:05.773Z,1008.75
2023-03-31T05:09:05.767Z,1008.78
2023-03-31T05:10:05.753Z,1008.77
2023-03-31T05:11:05.761Z,1008.83
2023-03-31T05:12:05.776Z,1008.72
2023-03-31T05:13:05.762Z,1008.68
2023-03-31T05:14:05.763Z,1008.62
2023-03-31T05:15:05.772Z,1008.58
2023-03-31T05:16:05.952Z,1008.65
2023-03-31T05:17:05.773Z,1008.77
2023-03-31T05:18:05.806Z,1008.7
2023-03-31T05:19:05.778Z,1008.76
2023-03-31T05:20:05.750Z,1008.82
2023-03-31T05:21:05.774Z,1008.79
2023-03-31T05:22:05.776Z,1008.91
2023-03-31T05:23:05.763Z,1008.86
2023-03-31T05:24:05.771Z,1008.83
2023-03-31T05:25:05.761Z,1008.81
2023-03-31T05:26:05.951Z,1008.72
2023-03-31T05:27:05.787Z,1008.69
2023-03-31T05:28:05.770Z,1008.68
2023-03-31T05:29:05.761Z,1008.68
2023-03-31T05:30:05.797Z,1008.71
2023-03-31T05:31:05.758Z,1008.66
2023-03-31T05:32:05.884Z,1008.69
2023-03-31T05:33:05.800Z,1008.66
2023-03-31T05:34:05.767Z,1008.66
2023-03-31T05:35:05.776Z,1008.63
2023-03-31T05:36:06.101Z,1008.56
2023-03-31T05:37:05.784Z,1008.59
2023-03-31T05:38:05.769Z,1008.61
2023-03-31T05:39:05.765Z,1008.52
2023-03-31T05:40:05.769Z,1008.48
2023-03-31T05:41:05.773Z,1008.45
2023-03-31T05:42:05.780Z,1008.45
2023-03-31T05:43:05.758Z,1008.35
2023-03-31T05:44:05.766Z,1008.3
2023-03-31T05:45:08.568Z,1008.3
2023-03-31T05:46:06.205Z,1008.32
2023-03-31T05:47:05.779Z,1008.19
2023-03-31T05:48:05.832Z,1008.25
2023-03-31T05:49:05.758Z,1008.25
2023-03-31T05:50:05.756Z,1008.18
2023-03-31T05:51:05.837Z,1008.14
2023-03-31T05:52:05.781Z,1008.22
2023-03-31T05:53:05.766Z,1008.22
2023-03-31T05:54:05.773Z,1008.24
2023-03-31T05:55:05.778Z,1008.17
2023-03-31T05:56:06.254Z,1008.2
2023-03-31T05:57:06.033Z,1008.1
2023-03-31T05:58:05.767Z,1008.05
2023-03-31T05:59:05.757Z,1008.07
2023-03-31T06:00:05.749Z,1008.11
2023-03-31T06:01:06.029Z,1008.07
2023-03-31T06:02:05.830Z,1008.14
2023-03-31T06:03:05.962Z,1008.12
2023-03-31T06:04:05.824Z,1008.19
2023-03-31T06:05:05.759Z,1008.22
2023-03-31T06:06:05.789Z,1008.29
2023-03-31T06:07:05.788Z,1008.12
2023-03-31T06:08:05.779Z,1008.12
2023-03-31T06:09:05.790Z,1008.1
2023-03-31T06:10:05.761Z,1008.12
2023-03-31T06:11:05.929Z,1008.16
2023-03-31T06:12:05.774Z,1008.08
2023-03-31T06:13:05.763Z,1008.07
2023-03-31T06:14:05.764Z,1008.07
2023-03-31T06:15:05.763Z,1008.13
2023-03-31T06:16:05.838Z,1008.17
2023-03-31T06:17:05.783Z,1008.14
2023-03-31T06:18:05.789Z,1008.19
2023-03-31T06:19:05.767Z,1008.11
2023-03-31T06:20:15.986Z,1008.15
2023-03-31T06:21:06.106Z,1008.13
2023-03-31T06:22:05.784Z,1008.09
2023-03-31T06:23:05.763Z,1008.03
2023-03-31T06:24:05.767Z,1008.04
2023-03-31T06:25:05.753Z,1008
2023-03-31T06:26:05.769Z,1008
2023-03-31T06:27:05.776Z,1008.03
2023-03-31T06:28:05.762Z,1008.01
2023-03-31T06:29:05.778Z,1008.03
2023-03-31T06:30:05.754Z,1008
2023-03-31T06:31:06.073Z,1007.99
2023-03-31T06:32:05.852Z,1007.99
2023-03-31T06:33:05.812Z,1007.96
2023-03-31T06:34:05.763Z,1007.92
2023-03-31T06:35:05.761Z,1007.99
2023-03-31T06:36:05.981Z,1007.95
2023-03-31T06:37:05.791Z,1007.92
2023-03-31T06:38:05.757Z,1007.93
2023-03-31T06:39:05.770Z,1007.94
2023-03-31T06:40:05.755Z,1007.93
2023-03-31T06:41:05.875Z,1008.02
2023-03-31T06:42:05.777Z,1007.98
2023-03-31T06:43:05.768Z,1008
2023-03-31T06:44:05.762Z,1008.09
2023-03-31T06:45:05.924Z,1007.93
2023-03-31T06:46:06.051Z,1007.9
2023-03-31T06:47:05.794Z,1007.85
2023-03-31T06:48:05.791Z,1007.88
2023-03-31T06:49:05.763Z,1007.84
2023-03-31T06:50:05.757Z,1007.77
2023-03-31T06:51:05.799Z,1007.81
2023-03-31T06:52:05.778Z,1007.77
2023-03-31T06:53:05.751Z,1007.73
2023-03-31T06:54:05.767Z,1007.78
2023-03-31T06:55:05.764Z,1007.71
2023-03-31T06:56:05.934Z,1007.7
2023-03-31T06:57:05.825Z,1007.67
2023-03-31T06:58:05.752Z,1007.68
2023-03-31T06:59:05.752Z,1007.64
2023-03-31T07:00:05.753Z,1007.59
2023-03-31T07:01:06.267Z,1007.61
2023-03-31T07:02:05.829Z,1007.62
2023-03-31T07:03:05.885Z,1007.64
2023-03-31T07:04:05.762Z,1007.61
2023-03-31T07:05:05.766Z,1007.61
2023-03-31T07:06:05.773Z,1007.61
2023-03-31T07:07:05.782Z,1007.56
2023-03-31T07:08:05.774Z,1007.56
2023-03-31T07:09:05.751Z,1007.53
2023-03-31T07:10:05.754Z,1007.53
2023-03-31T07:11:06.218Z,1007.58
2023-03-31T07:12:05.776Z,1007.58
2023-03-31T07:13:05.966Z,1007.48
2023-03-31T07:14:05.765Z,1007.47
2023-03-31T07:15:05.766Z,1007.5
2023-03-31T07:16:05.969Z,1007.42
2023-03-31T07:17:05.778Z,1007.4
2023-03-31T07:18:05.758Z,1007.4
2023-03-31T07:19:05.771Z,1007.39
2023-03-31T07:20:05.766Z,1007.31
2023-03-31T07:21:08.815Z,1007.33
2023-03-31T07:22:05.795Z,1007.29
2023-03-31T07:23:05.767Z,1007.29
2023-03-31T07:24:05.752Z,1007.35
2023-03-31T07:25:05.763Z,1007.29
2023-03-31T07:26:05.758Z,1007.25
2023-03-31T07:27:05.785Z,1007.31
2023-03-31T07:28:05.765Z,1007.31
2023-03-31T07:29:05.759Z,1007.35
2023-03-31T07:30:05.757Z,1007.36
2023-03-31T07:31:05.925Z,1007.27
2023-03-31T07:32:05.849Z,1007.23
2023-03-31T07:33:05.777Z,1007.23
2023-03-31T07:34:05.749Z,1007.29
2023-03-31T07:35:05.794Z,1007.37
2023-03-31T07:36:12.596Z,1007.52
2023-03-31T07:37:05.766Z,1007.35
2023-03-31T07:38:05.753Z,1007.26
2023-03-31T07:39:05.762Z,1007.34
2023-03-31T07:40:05.745Z,1007.19
2023-03-31T07:41:09.420Z,1007.25
2023-03-31T07:42:05.769Z,1007.26
2023-03-31T07:43:05.758Z,1007.22
2023-03-31T07:44:05.771Z,1007.15
2023-03-31T07:45:05.774Z,1007.2
2023-03-31T07:46:06.270Z,1007.13
2023-03-31T07:47:05.781Z,1007.17
2023-03-31T07:48:05.786Z,1007.12
2023-03-31T07:49:05.759Z,1007.17
2023-03-31T07:50:05.766Z,1007.16
2023-03-31T07:51:05.996Z,1007.14
2023-03-31T07:52:05.790Z,1007.06
2023-03-31T07:53:05.763Z,1007.07
2023-03-31T07:54:05.781Z,1007.06
2023-03-31T07:55:05.770Z,1007.03
2023-03-31T07:56:05.979Z,1007.09
2023-03-31T07:57:05.847Z,1007.06
2023-03-31T07:58:05.754Z,1007.02
2023-03-31T07:59:05.808Z,1007
2023-03-31T08:00:05.751Z,1006.95
2023-03-31T08:01:05.997Z,1006.9
2023-03-31T08:02:05.814Z,1006.88
2023-03-31T08:03:05.878Z,1006.86
2023-03-31T08:04:05.813Z,1006.79
2023-03-31T08:05:05.774Z,1006.79
2023-03-31T08:06:05.970Z,1006.75
2023-03-31T08:07:05.776Z,1006.71
2023-03-31T08:08:05.760Z,1006.71
2023-03-31T08:09:05.751Z,1006.72
2023-03-31T08:10:05.760Z,1006.69
2023-03-31T08:11:05.987Z,1006.64
2023-03-31T08:12:05.773Z,1006.62
2023-03-31T08:13:05.764Z,1006.57
2023-03-31T08:14:05.750Z,1006.45
2023-03-31T08:15:05.761Z,1006.39
2023-03-31T08:16:05.931Z,1006.5
2023-03-31T08:17:05.789Z,1006.34
2023-03-31T08:18:05.781Z,1006.36
2023-03-31T08:19:05.765Z,1006.44
2023-03-31T08:20:07.748Z,1006.42
2023-03-31T08:21:06.030Z,1006.31
2023-03-31T08:22:05.795Z,1006.43
2023-03-31T08:23:05.751Z,1006.26
2023-03-31T08:24:05.760Z,1006.44
2023-03-31T08:25:05.778Z,1006.91
2023-03-31T08:26:05.936Z,1006.51
2023-03-31T08:28:05.758Z,1006.62
2023-03-31T08:29:05.773Z,1006.41
2023-03-31T08:30:05.766Z,1006.36
2023-03-31T08:31:05.756Z,1006.52
2023-03-31T08:32:05.922Z,1006.56
2023-03-31T08:33:05.871Z,1006.41
2023-03-31T08:34:05.794Z,1006.39
2023-03-31T08:35:05.818Z,1006.62
2023-03-31T08:36:06.075Z,1006.46
2023-03-31T08:37:06.081Z,1006.37
2023-03-31T08:38:05.759Z,1006.59
2023-03-31T08:39:05.763Z,1006.24
2023-03-31T08:40:05.758Z,1006.48
2023-03-31T08:41:05.751Z,1006.22
2023-03-31T08:42:06.588Z,1006.41
2023-03-31T08:43:05.760Z,1006.21
2023-03-31T08:44:05.753Z,1006.15
2023-03-31T08:45:05.763Z,1006.4
2023-03-31T08:46:06.010Z,1006.15
2023-03-31T08:47:05.776Z,1006.19
2023-03-31T08:48:07.319Z,1006.16
2023-03-31T08:49:05.752Z,1006.24
2023-03-31T08:50:05.738Z,1006.22
2023-03-31T08:51:06.037Z,1006.29
2023-03-31T08:52:05.773Z,1006.57
2023-03-31T08:53:05.754Z,1006.17
2023-03-31T08:54:05.771Z,1006.21
2023-03-31T08:55:05.758Z,1006.5
2023-03-31T08:56:05.921Z,1006.28
2023-03-31T08:57:05.832Z,1006.21
2023-03-31T08:58:05.746Z,1006.18
2023-03-31T08:59:05.758Z,1006.04
2023-03-31T09:00:05.742Z,1006.13
2023-03-31T09:01:06.004Z,1006.25
2023-03-31T09:02:05.874Z,1006.41
2023-03-31T09:03:07.358Z,1005.98
2023-03-31T09:04:07.161Z,1006.42
2023-03-31T09:05:05.754Z,1006.25
2023-03-31T09:06:05.778Z,1006.17
2023-03-31T09:07:05.768Z,1006.14
2023-03-31T09:08:05.772Z,1006.14
2023-03-31T09:09:05.764Z,1006.31
2023-03-31T09:10:05.745Z,1005.95
2023-03-31T09:11:05.753Z,1006.34
2023-03-31T09:12:05.770Z,1005.91
2023-03-31T09:13:05.764Z,1005.95
2023-03-31T09:14:05.753Z,1006.01
2023-03-31T09:15:05.755Z,1005.94
2023-03-31T09:16:06.124Z,1005.95
2023-03-31T09:17:05.839Z,1005.99
2023-03-31T09:18:05.777Z,1006.01
2023-03-31T09:19:05.764Z,1006.02
2023-03-31T09:20:05.744Z,1006.05
2023-03-31T09:21:05.954Z,1005.99
2023-03-31T09:22:05.772Z,1006.03
2023-03-31T09:23:05.751Z,1005.98
2023-03-31T09:24:05.774Z,1005.91
2023-03-31T09:25:05.767Z,1005.98
2023-03-31T09:26:05.961Z,1005.91
2023-03-31T09:27:05.764Z,1005.79
2023-03-31T09:28:05.751Z,1005.81
2023-03-31T09:29:05.754Z,1005.82
2023-03-31T09:30:05.757Z,1005.8
2023-03-31T09:31:05.769Z,1005.83
2023-03-31T09:32:05.768Z,1005.8
2023-03-31T09:33:05.791Z,1005.76
2023-03-31T09:34:05.759Z,1005.84
2023-03-31T09:35:05.755Z,1005.76
2023-03-31T09:36:05.996Z,1005.72
2023-03-31T09:37:05.779Z,1005.75
2023-03-31T09:38:05.745Z,1005.52
2023-03-31T09:39:05.758Z,1005.57
2023-03-31T09:40:05.748Z,1005.57
2023-03-31T09:41:05.770Z,1005.59
2023-03-31T09:42:05.796Z,1005.85
2023-03-31T09:43:05.761Z,1005.56
2023-03-31T09:44:05.759Z,1005.54
2023-03-31T09:45:05.764Z,1005.63
2023-03-31T09:46:09.775Z,1005.55
2023-03-31T09:47:06.760Z,1005.6
2023-03-31T09:48:05.798Z,1005.51
2023-03-31T09:49:05.760Z,1005.62
2023-03-31T09:50:05.751Z,1005.44
2023-03-31T09:51:05.781Z,1005.35
2023-03-31T09:52:05.783Z,1005.43
2023-03-31T09:53:05.762Z,1005.4
2023-03-31T09:54:05.759Z,1005.45
2023-03-31T09:55:05.770Z,1005.74
2023-03-31T09:56:05.957Z,1005.49
2023-03-31T09:57:05.801Z,1005.5
2023-03-31T09:58:05.758Z,1005.43
2023-03-31T09:59:05.756Z,1005.33
2023-03-31T10:00:05.746Z,1005.37
2023-03-31T10:01:05.968Z,1005.39
2023-03-31T10:02:05.849Z,1005.34
2023-03-31T10:03:05.760Z,1005.26
2023-03-31T10:04:05.823Z,1005.34
2023-03-31T10:05:05.796Z,1005.34
2023-03-31T10:06:05.777Z,1005.37
2023-03-31T10:07:05.776Z,1005.37
2023-03-31T10:08:05.759Z,1005.37
2023-03-31T10:09:05.766Z,1005.31
2023-03-31T10:10:05.751Z,1005.45
2023-03-31T10:11:05.927Z,1005.25
2023-03-31T10:12:05.772Z,1005.36
2023-03-31T10:13:05.759Z,1005.34
2023-03-31T10:14:05.762Z,1005.4
2023-03-31T10:15:05.768Z,1005.32
2023-03-31T10:16:05.770Z,1005.31
2023-03-31T10:17:05.774Z,1005.34
2023-03-31T10:18:05.810Z,1005.24
2023-03-31T10:19:05.757Z,1005.28
2023-03-31T10:20:05.757Z,1005.25
2023-03-31T10:21:06.009Z,1005.28
2023-03-31T10:22:05.781Z,1005.3
2023-03-31T10:23:05.773Z,1005.15
2023-03-31T10:24:05.769Z,1005.17
2023-03-31T10:25:05.770Z,1005.17
2023-03-31T10:26:05.755Z,1005.28
2023-03-31T10:27:05.787Z,1005.24
2023-03-31T10:28:05.770Z,1005.19
2023-03-31T10:29:05.762Z,1005.15
2023-03-31T10:30:05.747Z,1005.21
2023-03-31T10:31:05.973Z,1005.22
2023-03-31T10:32:05.786Z,1005.17
2023-03-31T10:33:19.077Z,1005.08
2023-03-31T10:34:05.769Z,1005.1
2023-03-31T10:35:05.771Z,1005.15
2023-03-31T10:36:05.796Z,1005.03
2023-03-31T10:37:05.764Z,1005.16
2023-03-31T10:38:06.217Z,1004.99
2023-03-31T10:39:05.762Z,1005.03
2023-03-31T10:40:05.743Z,1004.99
2023-03-31T10:41:06.035Z,1004.98
2023-03-31T10:42:05.768Z,1005.06
2023-03-31T10:43:05.753Z,1005.07
2023-03-31T10:44:05.760Z,1005.06
2023-03-31T10:45:05.757Z,1005.17
2023-03-31T10:46:05.764Z,1005.04
2023-03-31T10:47:05.802Z,1005.03
2023-03-31T10:48:05.790Z,1004.96
2023-03-31T10:49:05.757Z,1004.94
2023-03-31T10:50:05.751Z,1004.92
2023-03-31T10:51:06.059Z,1004.91
2023-03-31T10:52:05.812Z,1004.92
2023-03-31T10:53:05.751Z,1004.89
2023-03-31T10:54:05.756Z,1004.86
2023-03-31T10:55:05.755Z,1004.71
2023-03-31T10:56:05.775Z,1004.77
2023-03-31T10:57:05.815Z,1004.77
2023-03-31T10:58:05.758Z,1004.91
2023-03-31T10:59:06.531Z,1004.89
2023-03-31T11:00:05.747Z,1004.83
2023-03-31T11:01:05.872Z,1004.76
2023-03-31T11:02:05.872Z,1004.77
2023-03-31T11:03:05.795Z,1004.77
2023-03-31T11:04:05.860Z,1004.69
2023-03-31T11:05:05.758Z,1004.79
2023-03-31T11:06:05.770Z,1004.66
2023-03-31T11:07:05.759Z,1004.6
2023-03-31T11:08:05.809Z,1004.6
2023-03-31T11:09:05.787Z,1004.46
2023-03-31T11:10:05.749Z,1004.58
2023-03-31T11:11:05.929Z,1004.5
2023-03-31T11:12:05.769Z,1004.51
2023-03-31T11:13:05.751Z,1004.55
2023-03-31T11:14:05.760Z,1004.37
2023-03-31T11:15:05.761Z,1004.42
2023-03-31T11:16:05.807Z,1004.48
2023-03-31T11:17:05.789Z,1004.44
2023-03-31T11:18:05.800Z,1004.52
2023-03-31T11:19:05.764Z,1004.41
2023-03-31T11:20:05.745Z,1004.38
2023-03-31T11:21:05.973Z,1004.45
2023-03-31T11:22:05.784Z,1004.35
2023-03-31T11:23:05.752Z,1004.36
2023-03-31T11:24:05.756Z,1004.22
2023-03-31T11:25:05.754Z,1004.21
2023-03-31T11:26:05.746Z,1004.21
2023-03-31T11:27:05.765Z,1004.32
2023-03-31T11:28:05.755Z,1004.44
2023-03-31T11:29:05.754Z,1004.19
2023-03-31T11:30:05.746Z,1004.19
2023-03-31T11:31:05.887Z,1004.19
2023-03-31T11:32:05.827Z,1004.14
2023-03-31T11:33:05.849Z,1004.27
2023-03-31T11:34:05.783Z,1004.13
2023-03-31T11:35:05.753Z,1004.16
2023-03-31T11:36:05.799Z,1004.12
2023-03-31T11:37:05.776Z,1004.04
2023-03-31T11:38:05.744Z,1004.04
2023-03-31T11:39:05.753Z,1004.01
2023-03-31T11:40:05.756Z,1003.98
2023-03-31T11:41:05.977Z,1004.06
2023-03-31T11:42:05.782Z,1003.96
2023-03-31T11:43:05.754Z,1003.96
2023-03-31T11:44:05.760Z,1004.06
2023-03-31T11:45:05.751Z,1003.97
2023-03-31T11:46:06.097Z,1003.95
2023-03-31T11:47:05.769Z,1003.92
2023-03-31T11:48:07.750Z,1003.87
2023-03-31T11:49:05.761Z,1003.98
2023-03-31T11:50:05.746Z,1003.9
2023-03-31T11:51:05.767Z,1003.92
2023-03-31T11:52:05.768Z,1003.88
2023-03-31T11:53:05.758Z,1003.87
2023-03-31T11:54:05.753Z,1003.9
2023-03-31T11:55:05.762Z,1003.86
2023-03-31T11:56:05.894Z,1003.88
2023-03-31T11:57:05.819Z,1003.86
2023-03-31T11:58:05.770Z,1003.95
2023-03-31T11:59:05.753Z,1003.89
2023-03-31T12:00:05.744Z,1003.86
2023-03-31T12:01:05.750Z,1003.87
2023-03-31T12:02:05.787Z,1003.81
2023-03-31T12:03:05.862Z,1003.88
2023-03-31T12:04:05.829Z,1003.81
2023-03-31T12:05:05.784Z,1003.78
2023-03-31T12:06:06.057Z,1003.87
2023-03-31T12:07:05.775Z,1003.73
2023-03-31T12:08:05.762Z,1003.73
2023-03-31T12:09:05.747Z,1003.81